createdAt,value
2023-09-29T00:00:16.903Z,97689.63
2023-09-29T00:02:45.577Z,97700.47
2023-09-29T00:05:16.611Z,97698.41
2023-09-29T00:07:45.147Z,97698.63
2023-09-29T00:10:14.676Z,97705.72
2023-09-29T00:12:44.141Z,97707.41
2023-09-29T00:15:12.398Z,97706.19
2023-09-29T00:17:41.973Z,97703.97
2023-09-29T00:20:18.219Z,97698.56
2023-09-29T00:22:46.350Z,97705.19
2023-09-29T00:25:14.394Z,97701.63
2023-09-29T00:27:42.453Z,97699.25
2023-09-29T00:30:14.043Z,97698.28
2023-09-29T00:32:48.370Z,97700.09
2023-09-29T00:35:22.901Z,97704.69
2023-09-29T00:37:51.117Z,97711.81
2023-09-29T00:40:19.262Z,97708.06
2023-09-29T00:42:48.126Z,97698.91
2023-09-29T00:45:20.977Z,97699.75
2023-09-29T00:47:51.876Z,97692.44
2023-09-29T00:50:21.045Z,97697.72
2023-09-29T00:52:49.663Z,97688.53
2023-09-29T00:55:17.739Z,97688.22
2023-09-29T00:57:49.217Z,97688.56
2023-09-29T01:00:22.703Z,97689.91
2023-09-29T01:02:53.087Z,97687.38
2023-09-29T01:05:21.222Z,97692.88
2023-09-29T01:07:49.310Z,97685.06
2023-09-29T01:10:19.003Z,97683.03
2023-09-29T01:12:47.141Z,97688.16
2023-09-29T01:15:15.828Z,97683.41
2023-09-29T01:17:44.891Z,97680.38
2023-09-29T01:20:26.458Z,97681.88
2023-09-29T01:22:54.731Z,97681.50
2023-09-29T01:25:24.263Z,97678.16
2023-09-29T01:27:53.379Z,97682.56
2023-09-29T01:30:21.507Z,97671.03
2023-09-29T01:32:50.210Z,97671.22
2023-09-29T01:35:18.957Z,97666.28
2023-09-29T01:37:47.926Z,97663.19
2023-09-29T01:40:16.394Z,97663.06
2023-09-29T01:42:46.130Z,97665.03
2023-09-29T01:45:14.893Z,97661.03
2023-09-29T01:47:44.039Z,97661.38
2023-09-29T01:50:13.039Z,97661.53
2023-09-29T01:52:42.378Z,97663.19
2023-09-29T01:55:15.951Z,97657.06
2023-09-29T01:57:45.614Z,97662.41
2023-09-29T02:00:16.441Z,97660.06
2023-09-29T02:02:46.402Z,97658.66
2023-09-29T02:05:14.958Z,97653.56
2023-09-29T02:07:42.999Z,97652.28
2023-09-29T02:10:11.428Z,97648.16
2023-09-29T02:12:47.654Z,97655.94
2023-09-29T02:15:18.267Z,97653.06
2023-09-29T02:17:46.592Z,97648.16
2023-09-29T02:20:15.411Z,97653.22
2023-09-29T02:22:43.680Z,97643.41
2023-09-29T02:25:13.903Z,97644.06
2023-09-29T02:27:41.915Z,97634.59
2023-09-29T02:30:11.426Z,97628.31
2023-09-29T02:32:43.026Z,97623.94
2023-09-29T02:35:12.064Z,97631.09
2023-09-29T02:37:40.085Z,97640.81
2023-09-29T02:40:16.244Z,97640.63
2023-09-29T02:42:45.705Z,97641.16
2023-09-29T02:45:13.822Z,97640.81
2023-09-29T02:47:44.382Z,97648.81
2023-09-29T02:50:13.475Z,97643.88
2023-09-29T02:52:42.156Z,97636.75
2023-09-29T02:55:17.049Z,97625.81
2023-09-29T02:57:49.043Z,97626.31
2023-09-29T03:00:20.718Z,97629.56
2023-09-29T03:02:52.576Z,97637.53
2023-09-29T03:05:22.383Z,97638.28
2023-09-29T03:07:53.098Z,97642.63
2023-09-29T03:10:24.559Z,97645.00
2023-09-29T03:12:52.578Z,97641.63
2023-09-29T03:15:22.602Z,97636.38
2023-09-29T03:17:52.511Z,97638.28
2023-09-29T03:20:20.999Z,97625.78
2023-09-29T03:22:49.332Z,97625.28
2023-09-29T03:25:19.705Z,97628.66
2023-09-29T03:27:47.778Z,97633.06
2023-09-29T03:30:17.010Z,97626.13
2023-09-29T03:32:46.093Z,97634.38
2023-09-29T03:35:15.881Z,97615.22
2023-09-29T03:37:46.283Z,97626.56
2023-09-29T03:40:15.686Z,97623.88
2023-09-29T03:42:44.014Z,97624.25
2023-09-29T03:45:13.625Z,97623.53
2023-09-29T03:47:42.365Z,97619.47
2023-09-29T03:50:13.018Z,97624.50
2023-09-29T03:52:43.873Z,97618.09
2023-09-29T03:55:13.654Z,97615.53
2023-09-29T03:57:42.735Z,97608.66
2023-09-29T04:00:12.657Z,97606.75
2023-09-29T04:02:42.497Z,97609.06
2023-09-29T04:05:11.690Z,97606.06
2023-09-29T04:07:41.178Z,97607.38
2023-09-29T04:10:11.841Z,97611.00
2023-09-29T04:12:40.331Z,97605.34
2023-09-29T04:15:09.451Z,97610.25
2023-09-29T04:17:37.761Z,97613.81
2023-09-29T04:20:07.129Z,97617.38
2023-09-29T04:22:35.585Z,97610.78
2023-09-29T04:25:03.723Z,97621.28
2023-09-29T04:27:33.091Z,97605.72
2023-09-29T04:30:01.178Z,97601.72
2023-09-29T04:32:29.375Z,97598.66
2023-09-29T04:34:57.476Z,97605.09
2023-09-29T04:37:25.748Z,97595.41
2023-09-29T04:39:53.863Z,97591.34
2023-09-29T04:42:22.015Z,97591.50
2023-09-29T04:44:51.683Z,97589.31
2023-09-29T04:47:19.847Z,97583.34
2023-09-29T04:49:48.184Z,97579.19
2023-09-29T04:52:16.301Z,97575.91
2023-09-29T04:54:45.150Z,97575.91
2023-09-29T04:57:13.208Z,97566.91
2023-09-29T04:59:42.007Z,97564.44
2023-09-29T05:02:14.977Z,97588.44
2023-09-29T05:04:50.745Z,97589.06
2023-09-29T05:07:18.905Z,97581.22
2023-09-29T05:09:47.847Z,97578.34
2023-09-29T05:12:15.885Z,97587.59
2023-09-29T05:14:44.030Z,97585.03
2023-09-29T05:17:14.178Z,97584.50
2023-09-29T05:19:42.241Z,97577.75
2023-09-29T05:22:10.710Z,97591.97
2023-09-29T05:24:38.760Z,97581.00
2023-09-29T05:27:06.865Z,97585.41
2023-09-29T05:29:35.465Z,97577.56
2023-09-29T05:32:03.733Z,97586.19
2023-09-29T05:34:36.345Z,97588.22
2023-09-29T05:37:06.079Z,97587.25
2023-09-29T05:39:54.629Z,97583.88
2023-09-29T05:42:36.998Z,97577.94
2023-09-29T05:45:16.373Z,97577.59
2023-09-29T05:47:44.587Z,97572.56
2023-09-29T05:50:19.024Z,97564.22
2023-09-29T05:53:03.602Z,97566.25
2023-09-29T05:55:36.964Z,97567.59
2023-09-29T05:58:05.436Z,97570.13
2023-09-29T06:00:34.616Z,97565.69
2023-09-29T06:03:03.145Z,97570.25
2023-09-29T06:05:33.067Z,97574.13
2023-09-29T06:08:01.764Z,97573.13
2023-09-29T06:10:29.826Z,97579.75
2023-09-29T06:12:57.912Z,97572.59
2023-09-29T06:15:26.306Z,97583.94
2023-09-29T06:17:54.796Z,97585.75
2023-09-29T06:20:23.507Z,97581.34
2023-09-29T06:22:53.708Z,97582.22
2023-09-29T06:25:22.149Z,97580.97
2023-09-29T06:27:50.376Z,97575.44
2023-09-29T06:30:18.708Z,97571.06
2023-09-29T06:32:47.027Z,97573.34
2023-09-29T06:35:16.303Z,97566.88
2023-09-29T06:37:44.512Z,97560.97
2023-09-29T06:40:14.760Z,97560.34
2023-09-29T06:42:42.966Z,97550.59
2023-09-29T06:45:12.104Z,97555.41
2023-09-29T06:47:40.533Z,97557.38
2023-09-29T06:50:11.940Z,97574.25
2023-09-29T06:52:40.481Z,97567.13
2023-09-29T06:55:09.333Z,97560.00
2023-09-29T06:57:38.943Z,97560.66
2023-09-29T07:00:10.280Z,97553.66
2023-09-29T07:02:39.571Z,97551.44
2023-09-29T07:05:10.443Z,97541.69
2023-09-29T07:07:38.559Z,97539.63
2023-09-29T07:10:10.877Z,97549.94
2023-09-29T07:12:40.320Z,97550.38
2023-09-29T07:15:09.795Z,97549.44
2023-09-29T07:17:38.132Z,97547.38
2023-09-29T07:20:09.549Z,97542.81
2023-09-29T07:22:40.798Z,97547.88
2023-09-29T07:25:09.874Z,97541.19
2023-09-29T07:27:38.323Z,97545.16
2023-09-29T07:30:09.896Z,97544.47
2023-09-29T07:32:39.342Z,97538.00
2023-09-29T07:35:08.776Z,97535.28
2023-09-29T07:37:36.771Z,97536.19
2023-09-29T07:40:05.256Z,97524.19
2023-09-29T07:42:33.345Z,97529.59
2023-09-29T07:45:01.611Z,97534.09
2023-09-29T07:47:31.255Z,97532.09
2023-09-29T07:50:00.032Z,97529.91
2023-09-29T07:52:29.581Z,97529.44
2023-09-29T07:55:02.687Z,97531.97
2023-09-29T07:57:35.422Z,97527.84
2023-09-29T08:00:06.170Z,97523.31
2023-09-29T08:02:36.145Z,97524.63
2023-09-29T08:05:04.548Z,97511.31
2023-09-29T08:07:37.407Z,97519.59
2023-09-29T08:10:14.473Z,97530.72
2023-09-29T08:12:42.762Z,97511.28
2023-09-29T08:15:14.910Z,97510.50
2023-09-29T08:17:45.451Z,97514.09
2023-09-29T08:20:16.232Z,97508.41
2023-09-29T08:22:44.742Z,97514.63
2023-09-29T08:25:14.427Z,97510.78
2023-09-29T08:27:45.624Z,97509.09
2023-09-29T08:30:14.134Z,97500.84
2023-09-29T08:32:44.884Z,97505.06
2023-09-29T08:35:16.382Z,97507.44
2023-09-29T08:37:44.700Z,97499.06
2023-09-29T08:40:16.473Z,97498.41
2023-09-29T08:42:52.459Z,97491.56
2023-09-29T08:45:27.041Z,97494.78
2023-09-29T08:47:55.425Z,97493.75
2023-09-29T08:50:26.266Z,97492.56
2023-09-29T08:52:54.641Z,97486.28
2023-09-29T08:55:43.662Z,97485.47
2023-09-29T08:58:11.892Z,97491.78
2023-09-29T09:00:42.422Z,97487.16
2023-09-29T09:03:13.849Z,97482.41
2023-09-29T09:05:43.627Z,97484.94
2023-09-29T09:08:12.078Z,97490.16
2023-09-29T09:10:40.142Z,97490.41
2023-09-29T09:13:08.196Z,97494.19
2023-09-29T09:15:36.381Z,97486.25
2023-09-29T09:18:05.479Z,97482.03
2023-09-29T09:20:34.638Z,97478.03
2023-09-29T09:23:04.899Z,97486.41
2023-09-29T09:25:36.354Z,97493.53
2023-09-29T09:28:04.681Z,97498.59
2023-09-29T09:30:37.203Z,97498.81
2023-09-29T09:33:09.372Z,97510.16
2023-09-29T09:35:41.638Z,97515.81
2023-09-29T09:38:11.321Z,97517.25
2023-09-29T09:40:40.101Z,97498.97
2023-09-29T09:43:11.002Z,97504.13
2023-09-29T09:45:40.886Z,97504.50
2023-09-29T09:48:11.556Z,97499.72
2023-09-29T09:50:43.828Z,97504.13
2023-09-29T09:53:16.321Z,97511.13
2023-09-29T09:55:48.176Z,97513.28
2023-09-29T09:58:18.257Z,97507.81
2023-09-29T10:00:48.371Z,97503.38
2023-09-29T10:03:18.011Z,97508.88
2023-09-29T10:05:53.856Z,97499.81
2023-09-29T10:08:32.097Z,97494.78
2023-09-29T10:11:18.896Z,97503.41
2023-09-29T10:13:49.152Z,97500.44
2023-09-29T10:16:23.962Z,97504.00
2023-09-29T10:19:00.316Z,97496.44
2023-09-29T10:21:29.932Z,97499.56
2023-09-29T10:24:01.875Z,97504.84
2023-09-29T10:26:30.878Z,97501.47
2023-09-29T10:29:10.493Z,97500.22
2023-09-29T10:31:41.310Z,97496.41
2023-09-29T10:34:09.967Z,97507.13
2023-09-29T10:36:40.717Z,97512.81
2023-09-29T10:39:11.045Z,97512.22
2023-09-29T10:41:39.395Z,97521.88
2023-09-29T10:44:08.501Z,97531.78
2023-09-29T10:46:39.138Z,97531.34
2023-09-29T10:49:08.047Z,97545.56
2023-09-29T10:51:37.647Z,97555.19
2023-09-29T10:54:09.798Z,97556.63
2023-09-29T10:56:40.709Z,97562.00
2023-09-29T10:59:10.176Z,97557.59
2023-09-29T11:01:38.301Z,97560.03
2023-09-29T11:04:09.204Z,97559.66
2023-09-29T11:06:42.645Z,97563.44
2023-09-29T11:09:11.419Z,97561.34
2023-09-29T11:11:40.992Z,97577.75
2023-09-29T11:14:10.246Z,97562.63
2023-09-29T11:16:38.293Z,97568.28
2023-09-29T11:19:12.705Z,97567.47
2023-09-29T11:21:42.342Z,97566.31
2023-09-29T11:24:11.423Z,97573.00
2023-09-29T11:26:44.905Z,97571.97
2023-09-29T11:29:22.293Z,97563.59
2023-09-29T11:31:52.866Z,97568.25
2023-09-29T11:34:21.400Z,97567.03
2023-09-29T11:36:49.728Z,97556.13
2023-09-29T11:39:20.924Z,97556.97
2023-09-29T11:41:50.643Z,97558.25
2023-09-29T11:44:18.790Z,97556.50
2023-09-29T11:46:46.878Z,97561.16
2023-09-29T11:49:17.058Z,97554.03
2023-09-29T11:51:47.603Z,97564.75
2023-09-29T11:54:16.031Z,97552.13
2023-09-29T11:56:44.254Z,97560.97
2023-09-29T11:59:13.805Z,97565.38
2023-09-29T12:01:41.961Z,97555.31
2023-09-29T12:04:10.377Z,97562.22
2023-09-29T12:06:40.819Z,97544.38
2023-09-29T12:09:09.007Z,97546.06
2023-09-29T12:11:37.221Z,97533.88
2023-09-29T12:14:09.854Z,97522.31
2023-09-29T12:16:39.534Z,97535.13
2023-09-29T12:19:09.621Z,97529.84
2023-09-29T12:21:38.674Z,97533.41
2023-09-29T12:24:11.015Z,97540.16
2023-09-29T12:26:39.029Z,97527.13
2023-09-29T12:29:07.162Z,97537.88
2023-09-29T12:35:58.004Z,97536.81
2023-09-29T12:38:26.016Z,97537.44
2023-09-29T12:40:54.170Z,97552.75
2023-09-29T12:43:22.200Z,97548.56
2023-09-29T12:45:50.385Z,97553.59
2023-09-29T12:48:18.624Z,97549.78
2023-09-29T12:50:47.871Z,97541.56
2023-09-29T12:53:17.331Z,97539.66
2023-09-29T12:55:45.386Z,97540.78
2023-09-29T12:58:13.535Z,97538.88
2023-09-29T13:00:42.934Z,97539.28
2023-09-29T13:03:11.225Z,97555.72
2023-09-29T13:05:39.627Z,97560.75
2023-09-29T13:08:08.378Z,97558.69
2023-09-29T13:10:39.401Z,97553.41
2023-09-29T13:13:07.592Z,97554.66
2023-09-29T13:15:35.810Z,97556.56
2023-09-29T13:18:03.966Z,97562.03
2023-09-29T13:20:34.005Z,97562.66
2023-09-29T13:23:06.579Z,97568.56
2023-09-29T13:25:51.149Z,97579.28
2023-09-29T13:28:19.621Z,97584.31
2023-09-29T13:30:54.515Z,97585.16
2023-09-29T13:33:28.062Z,97597.56
2023-09-29T13:35:56.947Z,97597.75
2023-09-29T13:38:25.271Z,97601.13
2023-09-29T13:40:58.957Z,97609.91
2023-09-29T13:43:27.169Z,97604.44
2023-09-29T13:45:56.787Z,97600.66
2023-09-29T13:48:24.958Z,97610.94
2023-09-29T13:50:53.376Z,97613.09
2023-09-29T13:53:24.646Z,97616.66
2023-09-29T13:55:59.584Z,97619.38
2023-09-29T13:58:33.907Z,97621.53
2023-09-29T14:01:03.616Z,97638.25
2023-09-29T14:03:32.313Z,97659.59
2023-09-29T14:06:00.541Z,97675.91
2023-09-29T14:08:28.601Z,97705.38
2023-09-29T14:10:58.180Z,97713.25
2023-09-29T14:13:26.405Z,97721.69
2023-09-29T14:15:56.717Z,97740.72
2023-09-29T14:18:25.355Z,97749.41
2023-09-29T14:20:53.550Z,97753.22
2023-09-29T14:23:21.640Z,97754.38
2023-09-29T14:25:50.718Z,97758.19
2023-09-29T14:28:21.638Z,97753.91
2023-09-29T14:30:49.723Z,97756.09
2023-09-29T14:33:17.827Z,97764.44
2023-09-29T14:35:53.264Z,97751.56
2023-09-29T14:38:21.650Z,97754.53
2023-09-29T14:40:49.696Z,97766.97
2023-09-29T14:43:19.173Z,97759.00
2023-09-29T14:45:51.455Z,97756.88
2023-09-29T14:48:20.906Z,97753.72
2023-09-29T14:50:49.123Z,97757.44
2023-09-29T14:53:17.227Z,97753.91
2023-09-29T14:55:45.296Z,97759.00
2023-09-29T14:58:13.926Z,97754.13
2023-09-29T15:00:46.429Z,97753.91
2023-09-29T15:03:15.278Z,97748.59
2023-09-29T15:05:43.565Z,97744.81
2023-09-29T15:08:11.671Z,97746.13
2023-09-29T15:10:40.919Z,97747.94
2023-09-29T15:13:08.920Z,97740.81
2023-09-29T15:15:40.106Z,97754.06
2023-09-29T15:18:10.985Z,97739.06
2023-09-29T15:20:39.555Z,97746.34
2023-09-29T15:23:08.837Z,97752.59
2023-09-29T15:25:38.999Z,97750.94
2023-09-29T15:28:08.277Z,97753.88
2023-09-29T15:30:40.149Z,97764.91
2023-09-29T15:33:10.501Z,97762.63
2023-09-29T15:35:38.827Z,97760.53
2023-09-29T15:38:06.912Z,97774.91
2023-09-29T15:40:34.963Z,97771.75
2023-09-29T15:43:03.024Z,97786.31
2023-09-29T15:45:31.809Z,97788.84
2023-09-29T15:48:00.045Z,97798.78
2023-09-29T15:50:29.853Z,97790.22
2023-09-29T15:52:57.921Z,97813.09
2023-09-29T15:55:28.724Z,97819.19
2023-09-29T15:57:56.810Z,97830.84
2023-09-29T16:00:24.974Z,97867.06
2023-09-29T16:02:53.176Z,97892.38
2023-09-29T16:05:21.329Z,97901.94
2023-09-29T16:07:50.770Z,97932.38
2023-09-29T16:10:20.322Z,97926.94
2023-09-29T16:12:49.686Z,97939.28
2023-09-29T16:15:17.885Z,97938.63
2023-09-29T16:17:46.753Z,97951.13
2023-09-29T16:20:14.762Z,97959.63
2023-09-29T16:22:43.785Z,97963.69
2023-09-29T16:25:13.787Z,97966.56
2023-09-29T16:27:41.958Z,97974.66
2023-09-29T16:30:10.815Z,97987.75
2023-09-29T16:32:39.007Z,97991.59
2023-09-29T16:35:08.031Z,97990.03
2023-09-29T16:37:36.807Z,97998.53
2023-09-29T16:40:15.231Z,98012.00
2023-09-29T16:42:55.207Z,98025.53
2023-09-29T16:45:23.777Z,98027.97
2023-09-29T16:47:51.962Z,98032.84
2023-09-29T16:50:20.222Z,98030.13
2023-09-29T16:52:49.223Z,98038.94
2023-09-29T16:55:21.267Z,98038.28
2023-09-29T16:57:59.136Z,98055.25
2023-09-29T17:00:28.199Z,98070.34
2023-09-29T17:02:57.216Z,98069.34
2023-09-29T17:05:28.204Z,98062.44
2023-09-29T17:07:56.718Z,98065.72
2023-09-29T17:10:24.956Z,98082.16
2023-09-29T17:12:54.436Z,98084.06
2023-09-29T17:15:22.847Z,98097.22
2023-09-29T17:17:51.824Z,98084.56
2023-09-29T17:20:20.305Z,98091.41
2023-09-29T17:22:49.059Z,98104.06
2023-09-29T17:25:19.821Z,98103.81
2023-09-29T17:27:50.199Z,98101.34
2023-09-29T17:30:20.066Z,98105.91
2023-09-29T17:32:48.594Z,98105.56
2023-09-29T17:35:16.781Z,98115.59
2023-09-29T17:37:44.895Z,98110.00
2023-09-29T17:40:14.568Z,98114.50
2023-09-29T17:42:42.678Z,98109.34
2023-09-29T17:45:12.961Z,98111.88
2023-09-29T17:47:42.469Z,98119.63
2023-09-29T17:50:11.330Z,98122.34
2023-09-29T17:52:39.622Z,98116.28
2023-09-29T17:55:08.695Z,98123.03
2023-09-29T17:57:36.759Z,98131.09
2023-09-29T18:00:08.122Z,98133.66
2023-09-29T18:02:36.233Z,98136.75
2023-09-29T18:05:07.515Z,98145.81
2023-09-29T18:07:35.770Z,98141.72
2023-09-29T18:10:03.805Z,98146.69
2023-09-29T18:12:31.928Z,98161.97
2023-09-29T18:15:00.052Z,98164.19
2023-09-29T18:17:29.433Z,98173.88
2023-09-29T18:19:59.345Z,98187.66
2023-09-29T18:22:32.430Z,98177.13
2023-09-29T18:25:00.500Z,98198.50
2023-09-29T18:27:28.679Z,98203.84
2023-09-29T18:29:56.820Z,98211.03
2023-09-29T18:32:25.807Z,98212.72
2023-09-29T18:34:53.888Z,98227.53
2023-09-29T18:37:23.693Z,98229.56
2023-09-29T18:39:58.799Z,98220.19
2023-09-29T18:42:26.910Z,98223.53
2023-09-29T18:44:55.228Z,98237.44
2023-09-29T18:47:23.343Z,98239.00
2023-09-29T18:49:51.597Z,98242.09
2023-09-29T18:52:19.761Z,98238.72
2023-09-29T18:54:47.749Z,98250.44
2023-09-29T18:57:17.194Z,98252.34
2023-09-29T18:59:45.571Z,98251.09
2023-09-29T19:02:14.517Z,98247.97
2023-09-29T19:04:42.595Z,98257.41
2023-09-29T19:07:10.662Z,98260.41
2023-09-29T19:09:38.923Z,98266.25
2023-09-29T19:12:07.569Z,98261.72
2023-09-29T19:14:36.994Z,98269.63
2023-09-29T19:17:08.153Z,98266.00
2023-09-29T19:19:38.529Z,98277.41
2023-09-29T19:22:06.755Z,98280.41
2023-09-29T19:24:34.861Z,98285.88
2023-09-29T19:27:02.938Z,98282.41
2023-09-29T19:29:31.051Z,98287.41
2023-09-29T19:32:00.989Z,98291.38
2023-09-29T19:34:29.413Z,98289.59
2023-09-29T19:36:57.408Z,98286.38
2023-09-29T19:39:26.313Z,98294.47
2023-09-29T19:41:57.466Z,98299.31
2023-09-29T19:44:30.437Z,98300.59
2023-09-29T19:46:58.497Z,98301.75
2023-09-29T19:49:29.950Z,98302.41
2023-09-29T19:51:57.964Z,98293.75
2023-09-29T19:54:28.634Z,98290.72
2023-09-29T19:56:59.017Z,98298.41
2023-09-29T19:59:27.284Z,98287.28
2023-09-29T20:01:55.371Z,98293.88
2023-09-29T20:04:23.680Z,98300.91
2023-09-29T20:06:53.195Z,98305.59
2023-09-29T20:09:21.315Z,98303.38
2023-09-29T20:11:49.447Z,98301.78
2023-09-29T20:14:17.450Z,98309.41
2023-09-29T20:16:45.914Z,98316.66
2023-09-29T20:19:14.115Z,98316.75
2023-09-29T20:21:42.163Z,98312.81
2023-09-29T20:24:11.665Z,98312.56
2023-09-29T20:26:40.577Z,98319.75
2023-09-29T20:29:08.638Z,98320.84
2023-09-29T20:31:36.931Z,98324.09
2023-09-29T20:34:09.816Z,98315.53
2023-09-29T20:36:47.038Z,98320.63
2023-09-29T20:39:19.473Z,98329.66
2023-09-29T20:41:47.918Z,98335.63
2023-09-29T20:44:16.290Z,98350.13
2023-09-29T20:46:44.517Z,98352.38
2023-09-29T20:49:13.131Z,98353.09
2023-09-29T20:52:26.424Z,98355.66
2023-09-29T20:54:57.901Z,98365.47
2023-09-29T20:57:27.488Z,98366.03
2023-09-29T20:59:55.940Z,98364.47
2023-09-29T21:02:26.377Z,98369.25
2023-09-29T21:04:54.566Z,98377.75
2023-09-29T21:07:22.722Z,98384.19
2023-09-29T21:09:50.818Z,98385.13
2023-09-29T21:12:20.303Z,98386.97
2023-09-29T21:14:48.345Z,98382.22
2023-09-29T21:17:16.391Z,98385.84
2023-09-29T21:19:44.716Z,98383.22
2023-09-29T21:22:13.982Z,98381.31
2023-09-29T21:24:42.026Z,98398.13
2023-09-29T21:27:10.967Z,98397.81
2023-09-29T21:29:41.140Z,98403.44
2023-09-29T21:32:09.211Z,98407.25
2023-09-29T21:34:37.212Z,98409.97
2023-09-29T21:37:05.271Z,98399.50
2023-09-29T21:39:33.421Z,98392.47
2023-09-29T21:42:01.623Z,98390.59
2023-09-29T21:44:29.838Z,98401.97
2023-09-29T21:46:59.369Z,98405.31
2023-09-29T21:49:27.410Z,98401.03
2023-09-29T21:51:55.417Z,98402.69
2023-09-29T21:54:23.461Z,98393.63
2023-09-29T21:56:51.576Z,98388.75
2023-09-29T21:59:20.326Z,98392.25
2023-09-29T22:01:48.530Z,98397.41
2023-09-29T22:04:18.498Z,98403.72
2023-09-29T22:06:48.016Z,98404.88
2023-09-29T22:09:17.414Z,98412.88
2023-09-29T22:11:47.024Z,98420.56
2023-09-29T22:14:15.207Z,98408.81
2023-09-29T22:16:45.222Z,98417.53
2023-09-29T22:19:13.409Z,98419.06
2023-09-29T22:21:43.569Z,98424.25
2023-09-29T22:24:13.810Z,98431.47
2023-09-29T22:26:41.993Z,98431.03
2023-09-29T22:29:09.957Z,98423.25
2023-09-29T22:31:38.007Z,98424.91
2023-09-29T22:34:07.826Z,98424.47
2023-09-29T22:36:36.262Z,98427.28
2023-09-29T22:39:07.765Z,98437.63
2023-09-29T22:41:35.953Z,98431.84
2023-09-29T22:44:04.826Z,98431.59
2023-09-29T22:46:34.383Z,98425.88
2023-09-29T22:49:02.508Z,98431.53
2023-09-29T22:51:30.774Z,98426.47
2023-09-29T22:53:59.094Z,98422.66
2023-09-29T22:56:29.105Z,98410.03
2023-09-29T22:58:57.203Z,98417.78
2023-09-29T23:01:25.280Z,98420.41
2023-09-29T23:03:54.347Z,98415.03
2023-09-29T23:06:24.103Z,98414.78
2023-09-29T23:08:52.285Z,98416.47
2023-09-29T23:11:20.470Z,98417.72
2023-09-29T23:13:49.908Z,98416.16
2023-09-29T23:16:18.658Z,98412.63
2023-09-29T23:18:46.817Z,98418.13
2023-09-29T23:21:18.206Z,98426.88
2023-09-29T23:23:49.522Z,98415.50
2023-09-29T23:26:19.134Z,98416.47
2023-09-29T23:28:47.205Z,98428.09
2023-09-29T23:31:17.338Z,98418.91
2023-09-29T23:33:45.474Z,98427.38
2023-09-29T23:36:13.763Z,98422.28
2023-09-29T23:38:43.398Z,98427.66
2023-09-29T23:41:11.509Z,98434.16
2023-09-29T23:43:39.839Z,98437.44
2023-09-29T23:46:08.267Z,98441.50
2023-09-29T23:48:37.969Z,98449.38
2023-09-29T23:51:06.222Z,98449.38
2023-09-29T23:53:34.636Z,98452.56
2023-09-29T23:56:05.887Z,98453.66
2023-09-29T23:58:33.981Z,98452.81
